Time;durP1;ratioP1;P1;durP2;ratioP2;P2;SDS_P1;SDS_P2;PMS_P1;PMS_P2;Temp;Humidity;BMP_temperature;BMP_pressure;BME280_temperature;BME280_humidity;BME280_pressure;Samples;Min_cycle;Max_cycle;Signal;HPM_P1;HPM_P2
2023/07/12 00:00:57;;;;;;;18.63;9.45;;;28.90;99.90;;;;;;4936937;28;20042;-52
2023/07/12 00:03:23;;;;;;;18.95;10.27;;;28.90;99.90;;;;;;4937257;29;20032;-51
2023/07/12 00:05:51;;;;;;;19.85;9.57;;;28.90;99.90;;;;;;4937070;29;20209;-52
2023/07/12 00:08:23;;;;;;;19.52;9.63;;;29.00;99.90;;;;;;4936141;28;20023;-51
2023/07/12 00:10:50;;;;;;;21.50;9.43;;;29.00;99.90;;;;;;4937243;29;20035;-51
2023/07/12 00:13:17;;;;;;;21.90;10.02;;;29.00;99.90;;;;;;4936140;28;20042;-51
2023/07/12 00:15:44;;;;;;;24.35;9.68;;;29.00;99.90;;;;;;4937657;29;20401;-51
2023/07/12 00:18:23;;;;;;;19.60;10.57;;;29.00;99.90;;;;;;4937244;29;20469;-51
2023/07/12 00:20:50;;;;;;;21.25;9.00;;;29.00;99.90;;;;;;4937252;29;20110;-51
2023/07/12 00:23:17;;;;;;;;;;;29.00;99.90;;;;;;4937845;29;20046;-51
2023/07/12 00:25:45;;;;;;;20.02;10.40;;;29.00;99.90;;;;;;4937397;29;19997;-51
2023/07/12 00:28:20;;;;;;;18.40;8.70;;;29.00;99.90;;;;;;4937106;29;20055;-51
2023/07/12 00:30:46;;;;;;;22.02;10.07;;;29.00;99.90;;;;;;4937301;29;20087;-51
2023/07/12 00:33:12;;;;;;;20.75;10.90;;;29.00;99.90;;;;;;4936951;29;20039;-50
2023/07/12 00:35:41;;;;;;;24.05;10.98;;;29.00;99.90;;;;;;4937032;29;20982;-50
2023/07/12 00:38:15;;;;;;;27.20;9.40;;;29.00;99.90;;;;;;4936938;29;20028;-51
2023/07/12 00:40:40;;;;;;;19.23;11.15;;;29.00;99.90;;;;;;4936910;29;20098;-51
2023/07/12 00:43:25;;;;;;;20.30;10.75;;;29.00;99.90;;;;;;4936792;29;20102;-50
2023/07/12 00:45:53;;;;;;;22.98;11.75;;;29.00;99.90;;;;;;4936619;29;20056;-50
2023/07/12 00:48:19;;;;;;;20.70;10.68;;;29.00;99.90;;;;;;4937013;29;20472;-50
2023/07/12 00:50:49;;;;;;;23.80;13.18;;;29.00;99.90;;;;;;4937012;29;20036;-51
2023/07/12 00:53:17;;;;;;;25.42;14.00;;;29.00;99.90;;;;;;4936902;29;20123;-51
2023/07/12 00:56:01;;;;;;;26.80;13.85;;;29.00;99.90;;;;;;4936687;29;20058;-50
2023/07/12 00:58:39;;;;;;;20.50;13.32;;;29.00;99.90;;;;;;4936564;29;20022;-50
2023/07/12 01:01:06;;;;;;;25.73;14.32;;;29.00;99.90;;;;;;4964454;23;20063;-50
2023/07/12 01:03:37;;;;;;;34.05;14.00;;;29.00;99.90;;;;;;4975075;28;20535;-50
2023/07/12 01:06:05;;;;;;;22.65;12.85;;;28.90;99.90;;;;;;4975011;28;20415;-49
2023/07/12 01:08:31;;;;;;;26.38;12.43;;;28.90;99.90;;;;;;4974819;28;20078;-49
2023/07/12 01:10:58;;;;;;;24.75;12.73;;;28.90;99.90;;;;;;4974747;28;20105;-49
2023/07/12 01:13:24;;;;;;;16.45;11.25;;;28.90;99.90;;;;;;4974946;28;20042;-49
2023/07/12 01:15:51;;;;;;;26.15;14.05;;;28.90;99.90;;;;;;4974963;28;20031;-50
2023/07/12 01:18:17;;;;;;;26.65;13.57;;;28.90;99.90;;;;;;4974633;28;20034;-50
2023/07/12 01:20:45;;;;;;;26.88;15.43;;;28.90;99.90;;;;;;4974636;28;20031;-49
2023/07/12 01:23:11;;;;;;;;;;;28.90;99.90;;;;;;4975063;28;20027;-49
2023/07/12 01:25:43;;;;;;;24.42;13.35;;;28.90;99.90;;;;;;4974602;28;19930;-49
2023/07/12 01:28:09;;;;;;;24.08;14.25;;;28.80;99.90;;;;;;4974860;28;20411;-49
2023/07/12 01:30:36;;;;;;;23.15;14.35;;;28.80;99.90;;;;;;4974401;28;20030;-49
2023/07/12 01:33:03;;;;;;;29.10;12.27;;;28.80;99.90;;;;;;4974183;28;20033;-50
2023/07/12 01:35:30;;;;;;;19.52;13.38;;;28.80;99.90;;;;;;4974384;28;20023;-50
2023/07/12 01:37:56;;;;;;;30.77;14.50;;;28.80;99.90;;;;;;4974217;28;20388;-49
2023/07/12 01:40:22;;;;;;;25.58;14.43;;;28.80;99.90;;;;;;4974411;28;20027;-49
2023/07/12 01:42:47;;;;;;;26.42;13.40;;;28.80;99.90;;;;;;4972056;28;20053;-49
2023/07/12 01:45:13;;;;;;;22.58;15.48;;;28.80;99.90;;;;;;4973507;28;20034;-50
2023/07/12 01:47:39;;;;;;;25.05;14.15;;;28.80;99.90;;;;;;4968980;28;20476;-49
2023/07/12 01:50:05;;;;;;;23.60;13.07;;;28.80;99.90;;;;;;4954792;28;20035;-50
2023/07/12 01:52:31;;;;;;;22.00;12.90;;;28.70;99.90;;;;;;4954364;28;20034;-49
2023/07/12 01:54:57;;;;;;;19.27;12.38;;;28.80;99.90;;;;;;4967068;28;20353;-50
2023/07/12 01:57:23;;;;;;;26.45;14.13;;;28.80;99.90;;;;;;4954200;28;20027;-50
2023/07/12 01:59:49;;;;;;;19.63;11.82;;;28.70;99.90;;;;;;4954218;28;20102;-50
2023/07/12 02:02:14;;;;;;;28.02;13.65;;;28.70;99.90;;;;;;4991856;23;20051;-49
2023/07/12 02:04:41;;;;;;;25.00;12.30;;;28.70;99.90;;;;;;4973700;28;20019;-49
2023/07/12 02:07:07;;;;;;;21.33;11.70;;;28.70;99.90;;;;;;4988413;28;20046;-49
2023/07/12 02:09:39;;;;;;;19.92;13.02;;;28.70;99.90;;;;;;4973787;28;20031;-49
2023/07/12 02:12:05;;;;;;;25.42;12.60;;;28.70;99.90;;;;;;4973501;28;20058;-49
2023/07/12 02:14:31;;;;;;;22.05;13.48;;;28.70;99.90;;;;;;4973318;28;20423;-49
2023/07/12 02:16:57;;;;;;;31.50;14.10;;;28.70;99.90;;;;;;4973198;28;20023;-50
2023/07/12 02:19:23;;;;;;;23.83;13.43;;;28.70;99.90;;;;;;4973303;28;20394;-48
2023/07/12 02:21:49;;;;;;;25.05;13.27;;;28.70;99.90;;;;;;4971882;28;20054;-49
2023/07/12 02:24:14;;;;;;;20.30;12.68;;;28.70;99.90;;;;;;4973383;28;20015;-53
2023/07/12 02:26:41;;;;;;;23.50;11.02;;;28.70;99.90;;;;;;4973494;28;20472;-49
2023/07/12 02:29:07;;;;;;;20.25;10.55;;;28.70;99.90;;;;;;4973248;28;20022;-49
2023/07/12 02:31:33;;;;;;;22.65;11.65;;;28.70;99.90;;;;;;4982384;28;20081;-49
2023/07/12 02:33:59;;;;;;;22.20;11.60;;;28.80;99.90;;;;;;4976034;28;20407;-49
2023/07/12 02:36:25;;;;;;;22.20;11.32;;;28.70;99.90;;;;;;4972926;28;20027;-50
2023/07/12 02:38:50;;;;;;;19.00;9.25;;;28.70;99.90;;;;;;4973161;28;20411;-50
2023/07/12 02:41:17;;;;;;;20.60;10.07;;;28.80;99.90;;;;;;4973070;28;20352;-50
2023/07/12 02:43:47;;;;;;;21.05;9.75;;;28.70;99.90;;;;;;4973389;28;20169;-49
2023/07/12 02:46:13;;;;;;;17.45;9.57;;;28.70;99.90;;;;;;4984906;28;20030;-49
2023/07/12 02:48:39;;;;;;;21.48;10.73;;;28.80;99.90;;;;;;4973130;28;20357;-50
2023/07/12 02:51:05;;;;;;;24.63;10.00;;;28.80;99.90;;;;;;4972902;28;20402;-51
2023/07/12 02:53:34;;;;;;;16.25;7.68;;;28.80;99.90;;;;;;4976945;28;20042;-50
2023/07/12 02:55:59;;;;;;;19.38;8.00;;;28.80;99.90;;;;;;4981575;28;20391;-50
2023/07/12 02:58:25;;;;;;;18.65;8.18;;;28.80;99.90;;;;;;4972666;28;20019;-50
2023/07/12 03:01:00;;;;;;;19.75;8.85;;;28.80;99.90;;;;;;4992699;23;20054;-48
2023/07/12 03:03:29;;;;;;;16.77;8.40;;;28.80;99.90;;;;;;4974963;28;20102;-49
2023/07/12 03:05:54;;;;;;;17.27;8.55;;;28.80;99.90;;;;;;4973127;28;20093;-49
2023/07/12 03:08:20;;;;;;;16.65;8.02;;;28.80;99.90;;;;;;4972973;28;20482;-49
2023/07/12 03:10:46;;;;;;;13.65;8.18;;;28.80;99.90;;;;;;4973021;28;20022;-49
2023/07/12 03:13:12;;;;;;;14.98;7.40;;;28.80;99.90;;;;;;4972624;28;20507;-49
2023/07/12 03:15:38;;;;;;;27.95;10.23;;;28.80;99.90;;;;;;4972909;28;20019;-49
2023/07/12 03:18:04;;;;;;;23.70;9.80;;;28.80;99.90;;;;;;4972683;28;20039;-51
2023/07/12 03:20:33;;;;;;;25.90;8.57;;;28.80;99.90;;;;;;4972552;28;20452;-50
2023/07/12 03:22:58;;;;;;;18.90;8.40;;;28.90;99.90;;;;;;4972824;28;20038;-50
2023/07/12 03:25:24;;;;;;;16.33;7.90;;;28.90;99.90;;;;;;4972802;28;20019;-50
2023/07/12 03:27:50;;;;;;;20.25;9.40;;;28.80;99.90;;;;;;4972610;28;20080;-49
2023/07/12 03:30:16;;;;;;;26.63;10.55;;;28.80;99.90;;;;;;4972495;28;20014;-50
2023/07/12 03:32:42;;;;;;;23.50;11.25;;;28.80;99.90;;;;;;4972794;28;20361;-50
2023/07/12 03:35:08;;;;;;;26.67;10.50;;;28.80;99.90;;;;;;4985268;28;20019;-50
2023/07/12 03:37:34;;;;;;;20.10;10.52;;;28.80;99.90;;;;;;4972678;28;20027;-50
2023/07/12 03:40:00;;;;;;;22.95;10.18;;;28.70;99.90;;;;;;4974717;28;20130;-49
2023/07/12 03:42:25;;;;;;;22.50;9.75;;;28.70;99.90;;;;;;4984677;28;20027;-50
2023/07/12 03:44:51;;;;;;;17.45;9.27;;;28.70;99.90;;;;;;4976378;28;20026;-49
2023/07/12 03:47:17;;;;;;;24.23;8.98;;;28.60;99.90;;;;;;4975930;28;20027;-50
2023/07/12 03:49:43;;;;;;;23.98;9.82;;;28.60;99.90;;;;;;4976351;28;20602;-50
2023/07/12 03:52:08;;;;;;;29.48;9.32;;;28.60;99.90;;;;;;4975998;28;20082;-49
2023/07/12 03:54:34;;;;;;;24.00;9.35;;;28.60;99.90;;;;;;4974590;28;20380;-50
2023/07/12 03:57:00;;;;;;;18.77;9.40;;;28.60;99.90;;;;;;4975982;28;20031;-49
2023/07/12 03:59:25;;;;;;;24.58;10.32;;;28.60;99.90;;;;;;4974447;28;20027;-49
2023/07/12 04:01:51;;;;;;;15.80;9.32;;;28.50;99.90;;;;;;4976149;28;20049;-49
2023/07/12 04:04:17;;;;;;;19.10;8.75;;;28.60;99.90;;;;;;4975852;28;20030;-49
2023/07/12 04:06:43;;;;;;;25.85;8.73;;;28.50;99.90;;;;;;4988633;28;20537;-49
2023/07/12 04:09:09;;;;;;;22.85;8.23;;;28.50;99.90;;;;;;4975767;28;20063;-49
2023/07/12 04:11:37;;;;;;;21.77;8.00;;;28.50;99.90;;;;;;4975488;28;20078;-49
2023/07/12 04:14:02;;;;;;;;;;;28.60;99.90;;;;;;4976066;28;20467;-49
2023/07/12 04:16:29;;;;;;;14.27;7.63;;;28.60;99.90;;;;;;4975510;28;19906;-49
2023/07/12 04:18:56;;;;;;;23.52;9.20;;;28.60;99.90;;;;;;4975644;28;20057;-49
2023/07/12 04:21:21;;;;;;;25.20;9.18;;;28.60;99.90;;;;;;4975140;28;20031;-49
2023/07/12 04:23:49;;;;;;;23.20;9.25;;;28.60;99.90;;;;;;4975701;28;20370;-49
2023/07/12 04:26:17;;;;;;;19.10;8.85;;;28.60;99.90;;;;;;4975437;28;20022;-50
2023/07/12 04:28:48;;;;;;;24.15;9.10;;;28.60;99.90;;;;;;4982955;28;20034;-51
2023/07/12 04:31:16;;;;;;;17.58;8.65;;;28.60;99.90;;;;;;4980037;28;20022;-49
2023/07/12 04:33:42;;;;;;;25.80;8.88;;;28.60;99.90;;;;;;4975418;28;20506;-49
2023/07/12 04:36:10;;;;;;;25.98;9.88;;;28.50;99.90;;;;;;4975136;28;20026;-49
2023/07/12 04:38:36;;;;;;;22.98;9.50;;;28.60;99.90;;;;;;4975264;28;20535;-49
2023/07/12 04:41:03;;;;;;;23.48;9.95;;;28.50;99.90;;;;;;4975160;28;20031;-49
2023/07/12 04:43:29;;;;;;;21.42;10.05;;;28.50;99.90;;;;;;4983530;28;20014;-49
2023/07/12 04:45:56;;;;;;;24.42;9.88;;;28.50;99.90;;;;;;4992148;28;20109;-49
2023/07/12 04:48:23;;;;;;;29.98;10.00;;;28.40;99.90;;;;;;4975145;28;20019;-49
2023/07/12 04:50:53;;;;;;;19.52;8.30;;;28.40;99.90;;;;;;4974542;28;20503;-49
2023/07/12 04:53:20;;;;;;;18.17;9.10;;;28.40;99.90;;;;;;4978277;28;20080;-49
2023/07/12 04:55:45;;;;;;;20.45;8.95;;;28.40;99.90;;;;;;4983598;28;20019;-49
2023/07/12 04:58:12;;;;;;;25.27;9.30;;;28.40;99.90;;;;;;4974861;28;20085;-49
2023/07/12 05:00:38;;;;;;;19.58;9.82;;;28.40;99.90;;;;;;4984876;28;20026;-49
2023/07/12 05:03:04;;;;;;;26.02;9.45;;;28.40;99.90;;;;;;4992186;28;20035;-49
2023/07/12 05:05:29;;;;;;;25.63;9.10;;;28.30;99.90;;;;;;4974664;28;20109;-49
2023/07/12 05:07:55;;;;;;;24.63;9.07;;;28.30;99.90;;;;;;4987412;28;20100;-49
2023/07/12 05:10:22;;;;;;;23.65;9.40;;;28.30;99.90;;;;;;4974555;28;20482;-49
2023/07/12 05:12:47;;;;;;;22.10;9.18;;;28.40;99.90;;;;;;4974274;28;20507;-49
2023/07/12 05:15:13;;;;;;;22.70;10.05;;;28.30;99.90;;;;;;4981349;28;20046;-49
2023/07/12 05:17:40;;;;;;;31.08;10.98;;;28.40;99.90;;;;;;4980288;28;20554;-49
2023/07/12 05:20:07;;;;;;;25.27;10.48;;;28.30;99.90;;;;;;5005526;28;20090;-49
2023/07/12 05:22:33;;;;;;;32.80;10.82;;;28.30;99.90;;;;;;4974330;28;20027;-49
2023/07/12 05:25:00;;;;;;;28.55;11.40;;;28.40;99.90;;;;;;4974107;28;20391;-49
2023/07/12 05:27:26;;;;;;;17.17;9.82;;;28.40;99.90;;;;;;4985705;28;20030;-49
2023/07/12 05:29:52;;;;;;;26.48;10.15;;;28.50;99.90;;;;;;4975329;28;20076;-49
2023/07/12 05:32:19;;;;;;;19.13;9.77;;;28.40;99.90;;;;;;4974282;28;20502;-49
2023/07/12 05:34:45;;;;;;;26.05;12.68;;;28.50;99.90;;;;;;4973844;28;20019;-49
2023/07/12 05:37:11;;;;;;;14.68;7.65;;;28.50;99.90;;;;;;4973896;28;20380;-49
2023/07/12 05:39:37;;;;;;;22.75;10.23;;;28.50;99.90;;;;;;4973956;28;20027;-49
2023/07/12 05:42:03;;;;;;;28.33;11.13;;;28.50;99.90;;;;;;4973922;28;20031;-49
2023/07/12 05:44:29;;;;;;;24.98;9.75;;;28.50;99.90;;;;;;4973788;28;20023;-49
2023/07/12 05:46:55;;;;;;;17.33;9.05;;;28.50;99.90;;;;;;4973945;28;20030;-49
2023/07/12 05:49:20;;;;;;;28.08;9.20;;;28.50;99.90;;;;;;4972915;28;20078;-50
2023/07/12 05:51:46;;;;;;;22.77;10.10;;;28.60;99.90;;;;;;4973818;28;20035;-49
2023/07/12 05:54:12;;;;;;;19.42;9.68;;;28.60;99.90;;;;;;4973735;28;20022;-49
2023/07/12 05:56:38;;;;;;;27.98;12.55;;;28.60;99.90;;;;;;4972581;28;20026;-49
2023/07/12 05:59:04;;;;;;;17.00;8.23;;;28.60;99.90;;;;;;4973436;28;20058;-49
2023/07/12 06:01:30;;;;;;;15.68;8.07;;;28.60;99.90;;;;;;4977923;28;20136;-49
2023/07/12 06:03:57;;;;;;;17.52;8.38;;;28.60;99.90;;;;;;4981801;28;20031;-50
2023/07/12 06:06:23;;;;;;;16.92;7.90;;;28.70;99.90;;;;;;5003520;28;20018;-49
2023/07/12 06:08:49;;;;;;;24.90;9.13;;;28.70;99.90;;;;;;4973592;28;20109;-48
2023/07/12 06:11:15;;;;;;;23.60;9.47;;;28.70;99.90;;;;;;4973329;28;20453;-49
2023/07/12 06:13:41;;;;;;;22.48;10.23;;;28.70;99.90;;;;;;4973314;28;20127;-49
2023/07/12 06:16:07;;;;;;;26.27;11.93;;;28.80;99.90;;;;;;4973309;28;20081;-50
2023/07/12 06:18:33;;;;;;;27.83;10.07;;;28.80;99.90;;;;;;4979837;28;20018;-49
2023/07/12 06:21:02;;;;;;;28.35;10.63;;;28.80;99.90;;;;;;4979449;28;20050;-49
2023/07/12 06:23:29;;;;;;;22.23;9.75;;;28.80;99.90;;;;;;4973345;28;20494;-49
2023/07/12 06:25:58;;;;;;;31.30;9.75;;;28.80;99.90;;;;;;4985189;28;20026;-49
2023/07/12 06:28:25;;;;;;;23.92;9.75;;;28.70;99.90;;;;;;4973120;28;20019;-49
2023/07/12 06:30:51;;;;;;;30.17;11.67;;;28.70;99.90;;;;;;4973550;28;20018;-49
2023/07/12 06:33:17;;;;;;;31.20;10.52;;;28.70;99.90;;;;;;4973052;28;20799;-49
2023/07/12 06:35:43;;;;;;;17.98;8.70;;;28.70;99.90;;;;;;4972870;28;20073;-49
2023/07/12 06:38:09;;;;;;;23.52;9.32;;;28.70;99.90;;;;;;4972955;28;20023;-49
2023/07/12 06:40:35;;;;;;;21.55;10.10;;;28.70;99.90;;;;;;4973329;28;20135;-49
2023/07/12 06:43:01;;;;;;;29.60;11.07;;;28.70;99.90;;;;;;4987837;28;20073;-49
2023/07/12 06:45:27;;;;;;;26.85;10.32;;;28.70;99.90;;;;;;4981208;28;20019;-49
2023/07/12 06:47:52;;;;;;;25.42;10.63;;;28.70;99.90;;;;;;4977677;28;20110;-49
2023/07/12 06:50:18;;;;;;;27.40;10.95;;;28.70;99.90;;;;;;4972847;28;20439;-49
2023/07/12 06:52:44;;;;;;;26.75;10.35;;;28.70;99.90;;;;;;4972736;28;20035;-49
2023/07/12 06:55:10;;;;;;;23.30;9.77;;;28.70;99.90;;;;;;4987954;28;20041;-49
2023/07/12 06:57:36;;;;;;;24.00;10.82;;;28.70;99.90;;;;;;4972935;28;20038;-49
2023/07/12 07:00:06;;;;;;;25.92;11.50;;;28.70;99.90;;;;;;4985873;28;20031;-49
2023/07/12 07:02:33;;;;;;;26.10;10.00;;;28.70;99.90;;;;;;4972827;28;20403;-49
2023/07/12 07:04:59;;;;;;;21.75;9.75;;;28.70;99.90;;;;;;5003766;28;20022;-49
2023/07/12 07:07:25;;;;;;;22.73;9.60;;;28.80;99.90;;;;;;4973235;28;20150;-49
2023/07/12 07:09:51;;;;;;;23.75;9.00;;;28.80;99.90;;;;;;4972941;28;20066;-49
2023/07/12 07:12:17;;;;;;;24.13;11.05;;;28.80;99.90;;;;;;4981972;28;20038;-49
2023/07/12 07:14:42;;;;;;;39.45;10.60;;;28.80;99.90;;;;;;4975896;28;20038;-49
2023/07/12 07:17:10;;;;;;;22.27;8.90;;;28.80;99.90;;;;;;4974219;28;20037;-50
2023/07/12 07:19:37;;;;;;;20.08;7.90;;;28.80;99.90;;;;;;4982242;28;20077;-50
2023/07/12 07:22:03;;;;;;;16.63;6.50;;;28.90;99.90;;;;;;4995205;28;20022;-50
2023/07/12 07:24:29;;;;;;;25.10;7.65;;;28.80;99.90;;;;;;4996027;28;20030;-50
2023/07/12 07:26:55;;;;;;;24.65;9.90;;;28.90;99.90;;;;;;4995735;28;20383;-50
2023/07/12 07:29:21;;;;;;;24.08;12.80;;;28.90;99.90;;;;;;4988709;28;20022;-51
2023/07/12 07:31:46;;;;;;;35.53;11.25;;;29.00;99.90;;;;;;4976153;28;20073;-51
2023/07/12 07:34:14;;;;;;;25.83;10.35;;;29.00;99.90;;;;;;4982001;28;20019;-51
2023/07/12 07:36:40;;;;;;;22.80;8.63;;;29.00;99.90;;;;;;4983231;28;20026;-51
2023/07/12 07:39:06;;;;;;;25.00;8.27;;;28.90;99.90;;;;;;4981874;28;20030;-51
2023/07/12 07:41:32;;;;;;;28.15;9.05;;;28.90;99.90;;;;;;4983117;28;20053;-51
2023/07/12 07:43:58;;;;;;;29.73;10.15;;;28.90;99.90;;;;;;4979373;28;20058;-51
2023/07/12 07:46:25;;;;;;;25.95;10.10;;;28.90;99.90;;;;;;4995605;28;20027;-51
2023/07/12 07:48:51;;;;;;;25.03;11.03;;;28.80;99.90;;;;;;4995355;28;20037;-50
2023/07/12 07:51:16;;;;;;;33.30;14.23;;;28.80;99.90;;;;;;4993796;28;20252;-50
2023/07/12 07:53:43;;;;;;;36.30;12.77;;;28.80;99.90;;;;;;4983937;28;20431;-51
2023/07/12 07:56:08;;;;;;;33.30;12.38;;;28.70;99.90;;;;;;4995304;28;20030;-50
2023/07/12 07:58:34;;;;;;;25.58;10.98;;;28.70;99.90;;;;;;4995471;28;20374;-50
2023/07/12 08:01:00;;;;;;;22.70;10.77;;;28.60;99.90;;;;;;4992711;28;20038;-50
2023/07/12 08:03:26;;;;;;;29.73;11.52;;;28.60;99.90;;;;;;4992169;28;20034;-51
2023/07/12 08:05:52;;;;;;;28.80;10.77;;;28.60;99.90;;;;;;4994047;28;20033;-50
2023/07/12 08:08:20;;;;;;;25.35;11.65;;;28.50;99.90;;;;;;4995109;28;20037;-51
2023/07/12 08:10:46;;;;;;;28.02;11.55;;;28.50;99.90;;;;;;5003483;28;20133;-50
2023/07/12 08:13:12;;;;;;;34.55;10.98;;;28.50;99.90;;;;;;4991928;28;20106;-51
2023/07/12 08:15:38;;;;;;;28.45;10.05;;;28.60;99.90;;;;;;4976708;28;20034;-51
2023/07/12 08:18:04;;;;;;;25.50;10.45;;;28.60;99.90;;;;;;4975481;28;20029;-51
2023/07/12 08:20:29;;;;;;;24.35;10.10;;;28.60;99.90;;;;;;5006647;28;20089;-50
2023/07/12 08:22:55;;;;;;;28.25;11.77;;;28.60;99.90;;;;;;4975397;28;20023;-50
2023/07/12 08:25:21;;;;;;;23.80;10.55;;;28.60;99.90;;;;;;4975290;28;20023;-49
2023/07/12 08:27:47;;;;;;;26.55;11.82;;;28.60;99.90;;;;;;4974858;28;20498;-49
2023/07/12 08:30:14;;;;;;;29.25;11.63;;;28.60;99.90;;;;;;5005987;28;20243;-49
2023/07/12 08:32:40;;;;;;;29.02;12.38;;;28.50;99.90;;;;;;4979917;28;20466;-49
2023/07/12 08:35:06;;;;;;;27.30;11.60;;;28.50;99.90;;;;;;4981902;28;20042;-50
2023/07/12 08:37:33;;;;;;;25.58;10.70;;;28.40;99.90;;;;;;4994904;28;20467;-50
2023/07/12 08:39:59;;;;;;;27.63;10.73;;;28.40;99.90;;;;;;4994827;28;20033;-48
2023/07/12 08:42:35;;;;;;;21.17;10.75;;;28.40;99.90;;;;;;4994606;28;20018;-49
2023/07/12 08:45:18;;;;;;;26.85;10.88;;;28.40;99.90;;;;;;4994491;28;20027;-48
2023/07/12 08:47:45;;;;;;;26.45;13.15;;;28.40;99.90;;;;;;4994302;28;20026;-48
2023/07/12 08:50:16;;;;;;;22.63;11.20;;;28.40;99.90;;;;;;4990889;28;20117;-49
2023/07/12 08:52:44;;;;;;;19.92;9.43;;;28.30;99.90;;;;;;4974869;28;20057;-49
2023/07/12 08:55:21;;;;;;;18.48;9.93;;;28.30;99.90;;;;;;5005187;28;20480;-48
2023/07/12 08:58:09;;;;;;;17.98;10.15;;;28.30;99.90;;;;;;4984570;28;20027;-48
2023/07/12 09:00:36;;;;;;;18.58;8.77;;;28.20;99.90;;;;;;4974403;28;20044;-49
2023/07/12 09:03:02;;;;;;;19.27;9.13;;;28.20;99.90;;;;;;4984401;28;20113;-49
2023/07/12 09:05:28;;;;;;;18.52;8.48;;;28.20;99.90;;;;;;4977556;28;20085;-48
2023/07/12 09:08:14;;;;;;;22.85;9.32;;;28.20;99.90;;;;;;4974769;28;20035;-49
2023/07/12 09:10:44;;;;;;;17.30;8.13;;;28.20;99.90;;;;;;4974371;28;20026;-50
2023/07/12 09:13:13;;;;;;;18.17;8.98;;;28.10;99.90;;;;;;4974310;28;20039;-49
2023/07/12 09:15:46;;;;;;;13.75;7.85;;;28.10;99.90;;;;;;4974365;28;20015;-50
2023/07/12 09:18:34;;;;;;;18.05;7.35;;;28.10;99.90;;;;;;4974286;28;20031;-50
2023/07/12 09:21:10;;;;;;;14.32;7.25;;;28.20;99.90;;;;;;4974420;28;20364;-49
2023/07/12 09:23:41;;;;;;;14.35;6.80;;;28.20;99.90;;;;;;4974060;28;20117;-50
2023/07/12 09:26:21;;;;;;;18.38;6.85;;;28.20;99.90;;;;;;4974117;28;20031;-49
2023/07/12 09:28:46;;;;;;;15.07;7.43;;;28.30;99.90;;;;;;4973940;28;20113;-49
2023/07/12 09:31:23;;;;;;;13.27;6.13;;;28.30;99.90;;;;;;4974180;28;20480;-49
2023/07/12 09:34:00;;;;;;;13.38;6.53;;;28.40;99.90;;;;;;4973910;28;20479;-48
2023/07/12 09:36:26;;;;;;;14.60;7.87;;;28.50;99.90;;;;;;4984771;28;20049;-48
2023/07/12 09:38:52;;;;;;;16.35;7.50;;;28.50;99.90;;;;;;4993473;28;20077;-49
2023/07/12 09:41:24;;;;;;;15.38;6.97;;;28.50;99.90;;;;;;4993109;28;20562;-48
2023/07/12 09:43:58;;;;;;;11.63;6.88;;;28.60;99.90;;;;;;4992987;28;20031;-49
2023/07/12 09:46:30;;;;;;;12.88;6.15;;;28.60;99.90;;;;;;5013379;28;20031;-49
2023/07/12 09:51:41;;;;;;;15.05;7.30;;;28.70;99.90;;;;;;5068635;28;20473;-48
2023/07/12 09:54:32;;;;;;;14.90;6.60;;;28.70;99.90;;;;;;5064464;28;20032;-47
2023/07/12 09:57:29;;;;;;;10.00;6.70;;;28.70;99.90;;;;;;5036795;28;20029;-47
2023/07/12 10:00:06;;;;;;;13.50;7.00;;;28.80;99.90;;;;;;5049110;28;20096;-49
2023/07/12 10:02:38;;;;;;;15.00;8.13;;;28.80;99.90;;;;;;5048963;28;20040;-48
2023/07/12 10:05:14;;;;;;;12.60;8.05;;;28.90;99.90;;;;;;5042705;28;20056;-48
2023/07/12 10:07:54;;;;;;;16.05;9.93;;;28.90;99.90;;;;;;5046401;28;20477;-49
2023/07/12 10:10:32;;;;;;;18.70;9.30;;;29.00;99.90;;;;;;5046090;28;20036;-49
2023/07/12 10:13:22;;;;;;;14.35;9.82;;;29.00;99.90;;;;;;5046445;28;20021;-49
2023/07/12 10:15:48;;;;;;;17.70;9.70;;;29.00;99.90;;;;;;5046562;28;20571;-48
2023/07/12 10:18:21;;;;;;;17.45;9.65;;;29.00;99.90;;;;;;5045345;28;20078;-48
2023/07/12 10:20:48;;;;;;;13.40;9.48;;;29.00;99.90;;;;;;5045394;28;20031;-48
2023/07/12 10:23:16;;;;;;;18.88;9.90;;;29.10;99.90;;;;;;5046396;28;20025;-48
2023/07/12 10:25:48;;;;;;;13.93;9.70;;;29.10;99.90;;;;;;5061646;28;20112;-48
2023/07/12 10:28:27;;;;;;;14.90;9.73;;;29.10;99.90;;;;;;5045747;28;20029;-48
2023/07/12 10:30:56;;;;;;;13.77;9.80;;;29.10;99.90;;;;;;5042352;28;20366;-48
2023/07/12 10:33:37;;;;;;;13.23;8.55;;;29.10;99.90;;;;;;5045833;28;20152;-48
2023/07/12 10:36:11;;;;;;;13.38;9.27;;;29.10;99.90;;;;;;5045310;28;20618;-48
2023/07/12 10:38:37;;;;;;;14.88;9.25;;;29.20;99.90;;;;;;5045810;28;20021;-48
2023/07/12 10:41:13;;;;;;;13.40;9.07;;;29.20;99.90;;;;;;5046052;28;20036;-48
2023/07/12 10:43:46;;;;;;;13.27;8.82;;;29.20;99.90;;;;;;5045210;28;20013;-48
2023/07/12 10:46:25;;;;;;;13.40;8.82;;;29.20;99.90;;;;;;5044264;28;20550;-48
2023/07/12 10:48:51;;;;;;;11.98;7.90;;;29.20;99.90;;;;;;5044645;28;20025;-49
2023/07/12 10:51:26;;;;;;;10.43;8.25;;;29.20;99.90;;;;;;5044864;28;20029;-49
2023/07/12 10:53:54;;;;;;;11.95;7.97;;;29.20;99.90;;;;;;5045498;28;20018;-49
2023/07/12 10:56:27;;;;;;;11.77;8.18;;;29.20;99.90;;;;;;5042978;28;20022;-48
2023/07/12 10:58:59;;;;;;;10.27;7.53;;;29.20;99.90;;;;;;5045296;28;20052;-49
2023/07/12 11:01:51;;;;;;;13.55;8.20;;;29.20;99.90;;;;;;5038650;28;20040;-49
2023/07/12 11:04:24;;;;;;;10.45;8.50;;;29.20;99.90;;;;;;5033109;28;20025;-49
2023/07/12 11:07:27;;;;;;;8.27;7.45;;;29.30;99.90;;;;;;5031662;28;20029;-48
2023/07/12 11:09:54;;;;;;;13.88;8.00;;;29.30;99.90;;;;;;5028971;28;20068;-49
2023/07/12 11:12:29;;;;;;;10.48;7.03;;;29.30;99.90;;;;;;5031162;28;21008;-49
2023/07/12 11:15:06;;;;;;;14.27;7.45;;;29.30;99.90;;;;;;5031644;28;20485;-48
2023/07/12 11:17:55;;;;;;;13.52;6.97;;;29.30;99.90;;;;;;5031700;28;20489;-48
2023/07/12 11:20:23;;;;;;;17.63;6.70;;;29.30;99.90;;;;;;5031403;28;20130;-49
2023/07/12 11:23:00;;;;;;;20.48;7.55;;;29.30;99.90;;;;;;5031740;28;20107;-48
2023/07/12 11:25:31;;;;;;;17.80;7.60;;;29.40;99.90;;;;;;5031591;28;20057;-49
2023/07/12 11:28:23;;;;;;;18.38;8.60;;;29.40;99.90;;;;;;5031191;28;20056;-48
2023/07/12 11:31:26;;;;;;;15.82;7.38;;;29.50;99.90;;;;;;5031569;28;20038;-48
2023/07/12 11:34:12;;;;;;;16.58;7.47;;;29.50;99.90;;;;;;5027695;28;20033;-48
2023/07/12 11:36:39;;;;;;;19.35;8.13;;;29.50;99.90;;;;;;5030903;28;20316;-49
2023/07/12 11:39:17;;;;;;;13.40;7.43;;;29.50;99.90;;;;;;5031377;28;20108;-49
2023/07/12 11:41:52;;;;;;;18.95;7.82;;;29.60;99.90;;;;;;5028344;28;20053;-49
2023/07/12 11:44:18;;;;;;;16.10;7.30;;;29.60;99.90;;;;;;5028386;28;20079;-49
2023/07/12 11:46:44;;;;;;;10.75;6.97;;;29.60;99.90;;;;;;5031147;28;20025;-48
2023/07/12 11:49:19;;;;;;;13.50;11.00;;;29.60;99.90;;;;;;5030888;28;20433;-48
2023/07/12 11:51:48;;;;;;;22.25;16.30;;;29.60;99.90;;;;;;5031043;28;20279;-48
2023/07/12 11:54:35;;;;;;;20.52;13.93;;;29.60;99.90;;;;;;5029144;28;20018;-49
2023/07/12 11:57:02;;;;;;;23.20;13.88;;;29.60;99.90;;;;;;5027509;28;20079;-49
2023/07/12 11:59:41;;;;;;;20.17;13.38;;;29.60;99.90;;;;;;5029865;28;20385;-48
2023/07/12 12:02:21;;;;;;;22.25;12.77;;;29.60;99.90;;;;;;5029103;28;20029;-49
2023/07/12 12:04:55;;;;;;;21.65;12.13;;;29.60;99.90;;;;;;5029413;28;20121;-49
2023/07/12 12:07:33;;;;;;;18.00;11.48;;;29.60;99.90;;;;;;5031054;28;20017;-49
2023/07/12 12:09:59;;;;;;;17.73;11.43;;;29.60;99.90;;;;;;5029233;28;20537;-49
2023/07/12 12:12:31;;;;;;;21.08;11.63;;;29.60;99.90;;;;;;5026832;28;20021;-49
2023/07/12 12:14:56;;;;;;;17.27;10.75;;;29.60;99.90;;;;;;5030552;28;20500;-50
2023/07/12 12:17:31;;;;;;;16.33;10.32;;;29.60;99.90;;;;;;5029146;28;20108;-50
2023/07/12 12:20:11;;;;;;;18.20;10.13;;;29.60;99.90;;;;;;5031249;28;20048;-49
2023/07/12 12:22:41;;;;;;;18.15;10.70;;;29.60;99.90;;;;;;5030398;28;20057;-48
2023/07/12 12:25:20;;;;;;;15.52;9.57;;;29.60;99.90;;;;;;5028569;28;20018;-49
2023/07/12 12:27:48;;;;;;;16.50;10.27;;;29.60;99.90;;;;;;5025591;28;20109;-50
2023/07/12 12:30:19;;;;;;;13.63;9.98;;;29.70;99.90;;;;;;5028384;28;20038;-50
2023/07/12 12:33:20;;;;;;;14.82;10.40;;;29.60;99.90;;;;;;5030134;28;20199;-50
2023/07/12 12:35:55;;;;;;;14.43;9.27;;;29.60;99.90;;;;;;5028726;28;20030;-51
2023/07/12 12:38:32;;;;;;;12.93;8.77;;;29.60;99.90;;;;;;5029960;28;20034;-50
2023/07/12 12:41:13;;;;;;;14.75;9.27;;;29.60;99.90;;;;;;5030823;28;20568;-50
2023/07/12 12:43:57;;;;;;;12.60;8.35;;;29.60;99.90;;;;;;5027967;28;20067;-49
2023/07/12 12:46:23;;;;;;;15.65;9.50;;;29.60;99.90;;;;;;5028609;28;20038;-48